createdAt,value
2018-06-15T00:01:35.690Z,18.44
2018-06-15T00:04:11.029Z,18.45
2018-06-15T00:06:44.340Z,18.48
2018-06-15T00:09:17.712Z,18.51
2018-06-15T00:11:51.440Z,18.50
2018-06-15T00:14:24.813Z,18.51
2018-06-15T00:16:58.165Z,18.54
2018-06-15T00:19:31.515Z,18.57
2018-06-15T00:22:04.846Z,18.58
2018-06-15T00:24:38.203Z,18.58
2018-06-15T00:27:11.561Z,18.54
2018-06-15T00:29:44.893Z,18.54
2018-06-15T00:32:18.196Z,18.55
2018-06-15T00:34:51.530Z,18.55
2018-06-15T00:37:24.827Z,18.55
2018-06-15T00:39:58.176Z,18.55
2018-06-15T00:42:31.504Z,18.55
2018-06-15T00:45:04.853Z,18.53
2018-06-15T00:47:38.150Z,18.49
2018-06-15T00:50:11.484Z,18.52
2018-06-15T00:52:44.778Z,18.56
2018-06-15T00:55:18.113Z,18.58
2018-06-15T00:57:51.452Z,18.57
2018-06-15T01:00:24.806Z,18.58
2018-06-15T01:02:58.180Z,18.57
2018-06-15T01:05:31.536Z,18.57
2018-06-15T01:08:04.976Z,18.58
2018-06-15T01:10:38.309Z,18.58
2018-06-15T01:13:11.631Z,18.57
2018-06-15T01:15:45.051Z,18.57
2018-06-15T01:18:18.424Z,18.54
2018-06-15T01:20:51.856Z,18.55
2018-06-15T01:23:25.229Z,18.56
2018-06-15T01:25:58.557Z,18.56
2018-06-15T01:28:32.030Z,18.59
2018-06-15T01:31:05.361Z,18.60
2018-06-15T01:33:38.698Z,18.63
2018-06-15T01:36:12.176Z,18.65
2018-06-15T01:38:45.516Z,18.65
2018-06-15T01:41:18.828Z,18.69
2018-06-15T01:43:52.209Z,18.65
2018-06-15T01:46:25.587Z,18.67
2018-06-15T01:48:58.937Z,18.63
2018-06-15T01:51:32.256Z,18.59
2018-06-15T01:54:05.653Z,18.53
2018-06-15T01:56:39.237Z,18.52
2018-06-15T01:59:12.593Z,18.51
2018-06-15T02:01:46.064Z,18.48
2018-06-15T02:04:19.389Z,18.48
2018-06-15T02:06:52.819Z,18.48
2018-06-15T02:09:26.309Z,18.47
2018-06-15T02:11:59.684Z,18.48
2018-06-15T02:14:32.976Z,18.48
2018-06-15T02:17:06.393Z,18.47
2018-06-15T02:19:39.913Z,18.49
2018-06-15T02:22:13.274Z,18.47
2018-06-15T02:24:46.628Z,18.48
2018-06-15T02:27:20.030Z,18.48
2018-06-15T02:29:53.478Z,18.48
2018-06-15T02:32:26.844Z,18.49
2018-06-15T02:35:00.189Z,18.51
2018-06-15T02:37:33.540Z,18.50
2018-06-15T02:40:06.882Z,18.49
2018-06-15T02:42:40.355Z,18.50
2018-06-15T02:45:13.741Z,18.51
2018-06-15T02:47:47.187Z,18.52
2018-06-15T02:50:21.605Z,18.54
2018-06-15T02:52:54.934Z,18.53
2018-06-15T02:55:28.380Z,18.54
2018-06-15T02:58:01.748Z,18.54
2018-06-15T03:00:35.068Z,18.55
2018-06-15T03:03:08.426Z,18.52
2018-06-15T03:05:41.740Z,18.53
2018-06-15T03:08:15.113Z,18.51
2018-06-15T03:10:48.491Z,18.50
2018-06-15T03:13:21.812Z,18.51
2018-06-15T03:15:55.233Z,18.51
2018-06-15T03:18:28.584Z,18.54
2018-06-15T03:21:01.947Z,18.55
2018-06-15T03:23:35.258Z,18.57
2018-06-15T03:26:08.593Z,18.56
2018-06-15T03:28:41.935Z,18.59
2018-06-15T03:31:15.285Z,18.62
2018-06-15T03:33:48.600Z,18.62
2018-06-15T03:36:21.918Z,18.65
2018-06-15T03:38:55.224Z,18.66
2018-06-15T03:41:28.725Z,18.67
2018-06-15T03:44:02.035Z,18.70
2018-06-15T03:46:36.001Z,18.70
2018-06-15T03:49:09.316Z,18.70
2018-06-15T03:51:42.666Z,18.70
2018-06-15T03:54:15.960Z,18.70
2018-06-15T03:56:49.303Z,18.71
2018-06-15T03:59:22.604Z,18.72
2018-06-15T04:01:55.953Z,18.73
2018-06-15T04:04:29.265Z,18.71
2018-06-15T04:07:02.606Z,18.73
2018-06-15T04:09:35.922Z,18.73
2018-06-15T04:12:09.277Z,18.73
2018-06-15T04:14:42.585Z,18.76
2018-06-15T04:17:17.001Z,18.79
2018-06-15T04:19:50.326Z,18.77
2018-06-15T04:22:23.656Z,18.78
2018-06-15T04:24:56.973Z,18.80
2018-06-15T04:27:30.369Z,18.84
2018-06-15T04:30:03.688Z,18.88
2018-06-15T04:32:37.045Z,18.91
2018-06-15T04:35:10.356Z,18.94
2018-06-15T04:37:43.668Z,18.99
2018-06-15T04:40:16.988Z,18.96
2018-06-15T04:42:50.337Z,19.00
2018-06-15T04:45:23.636Z,19.05
2018-06-15T04:47:57.070Z,19.08
2018-06-15T04:50:30.453Z,19.10
2018-06-15T04:53:03.768Z,19.14
2018-06-15T04:55:37.138Z,19.22
2018-06-15T04:58:10.471Z,19.28
2018-06-15T05:00:43.882Z,19.33
2018-06-15T05:03:17.230Z,19.33
2018-06-15T05:05:50.563Z,19.28
2018-06-15T05:08:23.892Z,19.28
2018-06-15T05:10:57.317Z,19.29
2018-06-15T05:13:30.664Z,19.29
2018-06-15T05:16:04.086Z,19.34
2018-06-15T05:18:37.458Z,19.35
2018-06-15T05:21:10.785Z,19.35
2018-06-15T05:23:44.217Z,19.38
2018-06-15T05:26:17.540Z,19.39
2018-06-15T05:28:50.856Z,19.43
2018-06-15T05:31:24.216Z,19.48
2018-06-15T05:33:57.681Z,19.51
2018-06-15T05:36:33.045Z,19.55
2018-06-15T05:39:08.748Z,19.51
2018-06-15T05:41:42.377Z,19.59
2018-06-15T05:44:15.754Z,19.61
2018-06-15T05:46:49.052Z,19.67
2018-06-15T05:49:22.408Z,19.76
2018-06-15T05:51:56.894Z,19.82
2018-06-15T05:54:30.225Z,19.82
2018-06-15T05:57:03.525Z,19.87
2018-06-15T05:59:36.884Z,19.92
2018-06-15T06:02:10.196Z,19.91
2018-06-15T06:04:43.554Z,20.00
2018-06-15T06:07:16.925Z,20.04
2018-06-15T06:09:50.278Z,20.10
2018-06-15T06:12:23.584Z,20.02
2018-06-15T06:14:56.914Z,20.05
2018-06-15T06:17:30.257Z,20.14
2018-06-15T06:20:03.689Z,20.21
2018-06-15T06:22:37.068Z,20.32
2018-06-15T06:25:10.392Z,20.42
2018-06-15T06:27:43.685Z,20.53
2018-06-15T06:30:17.027Z,20.57
2018-06-15T06:32:50.326Z,20.60
2018-06-15T06:35:23.645Z,20.67
2018-06-15T06:37:57.015Z,20.51
2018-06-15T06:40:30.315Z,20.46
2018-06-15T06:43:03.622Z,20.52
2018-06-15T06:45:36.937Z,20.58
2018-06-15T06:48:10.248Z,20.61
2018-06-15T06:50:43.571Z,20.66
2018-06-15T06:53:16.925Z,20.63
2018-06-15T06:55:50.273Z,20.73
2018-06-15T06:58:23.588Z,20.81
2018-06-15T07:00:57.080Z,20.96
2018-06-15T07:03:30.414Z,21.02
2018-06-15T07:06:03.740Z,21.13
2018-06-15T07:08:37.069Z,21.43
2018-06-15T07:11:10.468Z,21.65
2018-06-15T07:13:43.796Z,21.82
2018-06-15T07:16:17.156Z,21.71
2018-06-15T07:18:50.472Z,21.77
2018-06-15T07:21:23.815Z,21.70
2018-06-15T07:23:57.100Z,21.87
2018-06-15T07:26:30.440Z,22.11
2018-06-15T07:29:03.784Z,22.25
2018-06-15T07:31:37.096Z,22.28
2018-06-15T07:34:10.441Z,22.26
2018-06-15T07:36:43.766Z,22.21
2018-06-15T07:39:17.108Z,22.18
2018-06-15T07:41:50.444Z,22.20
2018-06-15T07:44:23.763Z,22.22
2018-06-15T07:46:57.190Z,22.19
2018-06-15T07:49:30.490Z,22.16
2018-06-15T07:52:03.813Z,22.14
2018-06-15T07:54:37.124Z,22.20
2018-06-15T07:57:10.456Z,22.12
2018-06-15T07:59:43.830Z,22.06
2018-06-15T08:02:17.080Z,22.16
2018-06-15T08:04:50.395Z,22.20
2018-06-15T08:07:23.715Z,22.25
2018-06-15T08:09:57.011Z,22.29
2018-06-15T08:12:30.328Z,22.32
2018-06-15T08:15:03.649Z,22.37
2018-06-15T08:17:37.005Z,22.49
2018-06-15T08:20:10.318Z,22.44
2018-06-15T08:22:43.641Z,22.55
2018-06-15T08:25:16.951Z,22.67
2018-06-15T08:27:50.296Z,22.77
2018-06-15T08:30:23.584Z,22.65
2018-06-15T08:32:56.980Z,22.61
2018-06-15T08:35:30.284Z,22.66
2018-06-15T08:38:03.611Z,22.77
2018-06-15T08:40:36.925Z,22.90
2018-06-15T08:43:10.244Z,23.01
2018-06-15T08:45:43.561Z,23.12
2018-06-15T08:48:16.949Z,23.09
2018-06-15T08:50:50.261Z,23.02
2018-06-15T08:53:23.589Z,23.08
2018-06-15T08:55:56.868Z,23.09
2018-06-15T08:58:30.222Z,23.07
2018-06-15T09:01:03.512Z,23.16
2018-06-15T09:03:36.809Z,23.18
2018-06-15T09:06:10.134Z,23.20
2018-06-15T09:08:43.454Z,23.23
2018-06-15T09:11:16.766Z,23.26
2018-06-15T09:13:50.076Z,22.94
2018-06-15T09:16:23.504Z,22.93
2018-06-15T09:18:56.834Z,22.92
2018-06-15T09:21:30.220Z,22.86
2018-06-15T09:24:03.535Z,23.00
2018-06-15T09:26:36.825Z,23.07
2018-06-15T09:29:10.125Z,23.20
2018-06-15T09:31:43.442Z,23.25
2018-06-15T09:34:16.756Z,23.55
2018-06-15T09:36:50.049Z,23.75
2018-06-15T09:39:23.423Z,23.69
2018-06-15T09:41:56.711Z,23.92
2018-06-15T09:44:30.084Z,24.02
2018-06-15T09:47:03.385Z,23.83
2018-06-15T09:49:36.716Z,23.75
2018-06-15T09:52:10.061Z,23.92
2018-06-15T09:54:43.408Z,24.19
2018-06-15T09:57:16.702Z,24.26
2018-06-15T09:59:50.032Z,24.53
2018-06-15T10:02:23.337Z,24.66
2018-06-15T10:04:56.648Z,25.05
2018-06-15T10:07:29.937Z,25.16
2018-06-15T10:10:03.275Z,25.27
2018-06-15T10:12:36.569Z,25.31
2018-06-15T10:15:09.889Z,25.04
2018-06-15T10:17:43.193Z,24.79
2018-06-15T10:20:16.519Z,24.57
2018-06-15T10:22:49.841Z,24.27
2018-06-15T10:25:23.151Z,24.07
2018-06-15T10:27:56.490Z,23.87
2018-06-15T10:30:29.832Z,23.71
2018-06-15T10:33:03.152Z,23.62
2018-06-15T10:35:36.486Z,23.56
2018-06-15T10:38:10.073Z,23.44
2018-06-15T10:40:43.383Z,23.64
2018-06-15T10:43:16.687Z,23.89
2018-06-15T10:45:50.018Z,23.98
2018-06-15T10:48:23.339Z,24.04
2018-06-15T10:50:56.652Z,23.85
2018-06-15T10:53:29.948Z,23.80
2018-06-15T10:56:03.250Z,23.88
2018-06-15T10:58:36.571Z,23.84
2018-06-15T11:01:09.896Z,23.84
2018-06-15T11:03:43.176Z,23.82
2018-06-15T11:06:16.485Z,23.89
2018-06-15T11:08:49.780Z,23.75
2018-06-15T11:11:23.132Z,23.83
2018-06-15T11:13:56.416Z,23.59
2018-06-15T11:16:29.728Z,23.25
2018-06-15T11:19:03.089Z,23.60
2018-06-15T11:21:36.418Z,23.96
2018-06-15T11:24:09.729Z,24.16
2018-06-15T11:26:49.645Z,24.25
2018-06-15T11:29:22.965Z,24.34
2018-06-15T11:31:56.274Z,24.40
2018-06-15T11:34:30.534Z,24.36
2018-06-15T11:37:03.859Z,24.47
2018-06-15T11:39:37.197Z,24.56
2018-06-15T11:42:10.493Z,24.62
2018-06-15T11:44:43.810Z,24.60
2018-06-15T11:47:17.117Z,24.60
2018-06-15T11:49:50.446Z,24.60
2018-06-15T11:52:23.748Z,24.68
2018-06-15T11:54:57.088Z,24.44
2018-06-15T11:57:30.543Z,24.55
2018-06-15T12:00:03.897Z,24.57
2018-06-15T12:02:37.192Z,24.69
2018-06-15T12:05:10.578Z,25.04
2018-06-15T12:07:43.887Z,25.40
2018-06-15T12:10:17.190Z,25.81
2018-06-15T12:12:50.525Z,26.02
2018-06-15T12:15:23.866Z,26.31
2018-06-15T12:17:57.192Z,26.47
2018-06-15T12:20:30.528Z,26.39
2018-06-15T12:23:03.832Z,26.37
2018-06-15T12:25:37.149Z,26.43
2018-06-15T12:28:10.792Z,26.10
2018-06-15T12:30:44.126Z,26.01
2018-06-15T12:33:17.439Z,26.14
2018-06-15T12:35:50.744Z,26.12
2018-06-15T12:38:24.280Z,26.22
2018-06-15T12:40:57.608Z,26.02
2018-06-15T12:43:30.945Z,25.62
2018-06-15T12:46:04.408Z,25.59
2018-06-15T12:48:37.596Z,25.88
2018-06-15T12:51:11.786Z,25.96
2018-06-15T12:53:47.174Z,26.01
2018-06-15T12:56:20.513Z,26.15
2018-06-15T12:58:53.808Z,26.14
2018-06-15T13:01:27.137Z,26.20
2018-06-15T13:04:00.432Z,26.31
2018-06-15T13:06:33.762Z,26.37
2018-06-15T13:09:08.374Z,26.28
2018-06-15T13:11:41.693Z,26.05
2018-06-15T13:14:15.001Z,25.90
2018-06-15T13:16:48.400Z,26.07
2018-06-15T13:19:21.704Z,26.21
2018-06-15T13:21:55.045Z,26.32
2018-06-15T13:24:32.443Z,26.32
2018-06-15T13:27:05.784Z,26.53
2018-06-15T13:29:39.089Z,26.79
2018-06-15T13:32:12.403Z,26.87
2018-06-15T13:34:45.701Z,26.62
2018-06-15T13:37:19.050Z,26.56
2018-06-15T13:39:52.429Z,26.48
2018-06-15T13:42:25.841Z,26.89
2018-06-15T13:44:59.734Z,27.55
2018-06-15T13:47:33.049Z,28.14
2018-06-15T13:50:06.345Z,28.03
2018-06-15T13:52:39.664Z,28.27
2018-06-15T13:55:12.968Z,28.03
2018-06-15T13:57:46.305Z,27.40
2018-06-15T14:00:19.633Z,26.98
2018-06-15T14:02:52.962Z,26.72
2018-06-15T14:05:26.265Z,26.36
2018-06-15T14:08:00.038Z,26.26
2018-06-15T14:10:33.360Z,26.21
2018-06-15T14:13:06.700Z,26.06
2018-06-15T14:15:40.057Z,25.88
2018-06-15T14:18:13.367Z,25.79
2018-06-15T14:20:46.716Z,25.83
2018-06-15T14:23:20.037Z,25.83
2018-06-15T14:25:53.420Z,25.85
2018-06-15T14:28:26.880Z,25.77
2018-06-15T14:31:02.519Z,25.81
2018-06-15T14:33:35.951Z,25.89
2018-06-15T14:36:09.830Z,25.90
2018-06-15T14:38:43.179Z,26.07
2018-06-15T14:41:16.489Z,26.11
2018-06-15T14:43:49.958Z,26.16
2018-06-15T14:46:23.252Z,26.13
2018-06-15T14:48:56.577Z,26.03
2018-06-15T14:51:29.938Z,26.01
2018-06-15T14:54:05.644Z,26.01
2018-06-15T14:56:39.119Z,25.88
2018-06-15T14:59:12.455Z,25.84
2018-06-15T15:01:47.001Z,26.12
2018-06-15T15:04:20.502Z,26.14
2018-06-15T15:06:53.898Z,26.18
2018-06-15T15:09:27.237Z,26.21
2018-06-15T15:12:01.501Z,26.21
2018-06-15T15:14:34.796Z,26.20
2018-06-15T15:17:08.446Z,26.14
2018-06-15T15:19:41.793Z,26.04
2018-06-15T15:22:15.144Z,26.00
2018-06-15T15:24:48.465Z,26.03
2018-06-15T15:27:21.825Z,26.05
2018-06-15T15:29:55.173Z,26.03
2018-06-15T15:32:28.521Z,25.96
2018-06-15T15:35:02.100Z,25.87
2018-06-15T15:37:35.434Z,25.89
2018-06-15T15:40:08.717Z,25.92
2018-06-15T15:42:42.032Z,25.96
2018-06-15T15:45:15.321Z,25.94
2018-06-15T15:47:48.633Z,26.05
2018-06-15T15:50:21.960Z,26.10
2018-06-15T15:52:55.268Z,26.08
2018-06-15T15:55:28.570Z,25.95
2018-06-15T15:58:02.929Z,25.91
2018-06-15T16:00:36.225Z,25.87
2018-06-15T16:03:09.550Z,25.88
2018-06-15T16:05:42.866Z,25.98
2018-06-15T16:08:16.220Z,26.07
2018-06-15T16:10:49.532Z,26.02
2018-06-15T16:13:23.530Z,26.01
2018-06-15T16:15:56.910Z,25.96
2018-06-15T16:18:30.968Z,25.95
2018-06-15T16:21:04.345Z,25.94
2018-06-15T16:23:38.509Z,25.89
2018-06-15T16:26:11.828Z,25.87
2018-06-15T16:28:45.176Z,25.76
2018-06-15T16:31:18.476Z,25.73
2018-06-15T16:33:51.829Z,25.69
2018-06-15T16:36:25.230Z,25.66
2018-06-15T16:38:58.827Z,25.56
2018-06-15T16:41:32.189Z,25.59
2018-06-15T16:44:05.597Z,25.51
2018-06-15T16:46:38.921Z,25.52
2018-06-15T16:49:12.246Z,25.48
2018-06-15T16:51:45.731Z,25.41
2018-06-15T16:54:19.147Z,25.34
2018-06-15T16:56:52.463Z,25.33
2018-06-15T16:59:25.781Z,25.35
2018-06-15T17:01:59.135Z,25.33
2018-06-15T17:04:32.449Z,25.32
2018-06-15T17:07:05.834Z,25.38
2018-06-15T17:09:39.387Z,25.42
2018-06-15T17:12:12.858Z,25.44
2018-06-15T17:14:46.193Z,25.37
2018-06-15T17:17:19.548Z,25.36
2018-06-15T17:19:52.948Z,25.33
2018-06-15T17:22:26.245Z,25.38
2018-06-15T17:25:00.552Z,25.34
2018-06-15T17:27:34.201Z,25.37
2018-06-15T17:30:07.636Z,25.42
2018-06-15T17:32:41.104Z,25.42
2018-06-15T17:35:14.436Z,25.35
2018-06-15T17:37:47.758Z,25.30
2018-06-15T17:40:21.131Z,25.29
2018-06-15T17:42:54.497Z,25.28
2018-06-15T17:45:27.826Z,25.21
2018-06-15T17:48:01.180Z,25.20
2018-06-15T17:50:34.566Z,25.16
2018-06-15T17:53:07.885Z,25.10
2018-06-15T17:55:41.282Z,25.06
2018-06-15T17:58:14.612Z,24.96
2018-06-15T18:00:47.973Z,24.94
2018-06-15T18:03:21.578Z,24.88
2018-06-15T18:05:54.980Z,24.82
2018-06-15T18:08:28.300Z,24.76
2018-06-15T18:11:02.420Z,24.71
2018-06-15T18:13:35.717Z,24.66
2018-06-15T18:16:09.057Z,24.61
2018-06-15T18:18:42.361Z,24.57
2018-06-15T18:21:15.720Z,24.47
2018-06-15T18:23:49.219Z,24.42
2018-06-15T18:26:22.556Z,24.38
2018-06-15T18:28:55.901Z,24.34
2018-06-15T18:31:29.252Z,24.30
2018-06-15T18:34:02.577Z,24.25
2018-06-15T18:36:35.908Z,24.19
2018-06-15T18:39:12.533Z,24.12
2018-06-15T18:41:45.908Z,24.04
2018-06-15T18:44:19.239Z,23.98
2018-06-15T18:46:52.554Z,23.92
2018-06-15T18:49:25.885Z,23.85
2018-06-15T18:51:59.185Z,23.79
2018-06-15T18:54:32.515Z,23.73
2018-06-15T18:57:06.281Z,23.69
2018-06-15T18:59:39.614Z,23.65
2018-06-15T19:02:12.924Z,23.62
2018-06-15T19:04:46.272Z,23.56
2018-06-15T19:07:19.587Z,23.51
2018-06-15T19:09:52.904Z,23.46
2018-06-15T19:12:27.296Z,23.41
2018-06-15T19:15:00.720Z,23.36
2018-06-15T19:17:34.040Z,23.31
2018-06-15T19:20:07.382Z,23.25
2018-06-15T19:22:40.773Z,23.20
2018-06-15T19:25:14.115Z,23.13
2018-06-15T19:27:47.416Z,23.07
2018-06-15T19:30:20.736Z,23.03
2018-06-15T19:32:54.050Z,22.99
2018-06-15T19:35:27.398Z,22.96
2018-06-15T19:38:02.749Z,22.93
2018-06-15T19:40:36.109Z,22.90
2018-06-15T19:43:09.528Z,22.86
2018-06-15T19:45:42.888Z,22.81
2018-06-15T19:48:16.216Z,22.77
2018-06-15T19:50:49.580Z,22.72
2018-06-15T19:53:22.905Z,22.68
2018-06-15T19:55:56.290Z,22.64
2018-06-15T19:58:30.949Z,22.59
2018-06-15T20:01:04.286Z,22.51
2018-06-15T20:03:37.651Z,22.44
2018-06-15T20:06:11.076Z,22.37
2018-06-15T20:08:44.405Z,22.31
2018-06-15T20:11:17.776Z,22.25
2018-06-15T20:13:51.086Z,22.17
2018-06-15T20:16:24.476Z,22.09
2018-06-15T20:18:57.821Z,22.02
2018-06-15T20:21:31.898Z,21.96
2018-06-15T20:24:05.220Z,21.88
2018-06-15T20:26:38.624Z,21.82
2018-06-15T20:29:12.243Z,21.76
2018-06-15T20:31:45.600Z,21.69
2018-06-15T20:34:19.031Z,21.58
2018-06-15T20:36:52.417Z,21.55
2018-06-15T20:39:25.728Z,21.49
2018-06-15T20:41:59.100Z,21.43
2018-06-15T20:44:32.395Z,21.37
2018-06-15T20:47:05.721Z,21.32
2018-06-15T20:49:39.055Z,21.21
2018-06-15T20:52:12.582Z,21.18
2018-06-15T20:54:55.657Z,21.17
2018-06-15T20:57:33.889Z,21.14
2018-06-15T21:00:07.236Z,21.08
2018-06-15T21:02:41.699Z,21.03
2018-06-15T21:05:15.153Z,20.96
2018-06-15T21:07:48.666Z,20.89
2018-06-15T21:10:22.211Z,20.86
2018-06-15T21:12:55.577Z,20.77
2018-06-15T21:15:29.053Z,20.72
2018-06-15T21:18:02.364Z,20.67
2018-06-15T21:20:35.668Z,20.60
2018-06-15T21:23:09.308Z,20.53
2018-06-15T21:25:42.685Z,20.47
2018-06-15T21:28:16.138Z,20.40
2018-06-15T21:30:49.492Z,20.29
2018-06-15T21:33:22.977Z,20.19
2018-06-15T21:35:56.481Z,20.10
2018-06-15T21:38:31.108Z,19.97
2018-06-15T21:41:04.396Z,19.95
2018-06-15T21:43:37.815Z,19.93
2018-06-15T21:46:11.253Z,19.90
2018-06-15T21:48:44.677Z,19.85
2018-06-15T21:51:18.121Z,19.79
2018-06-15T21:53:51.572Z,19.78
2018-06-15T21:56:25.192Z,19.79
2018-06-15T21:58:58.582Z,19.85
2018-06-15T22:01:31.927Z,19.85
2018-06-15T22:04:05.274Z,19.88
2018-06-15T22:06:39.000Z,19.89
2018-06-15T22:09:12.422Z,19.86
2018-06-15T22:11:45.747Z,19.76
2018-06-15T22:14:19.174Z,19.64
2018-06-15T22:16:53.327Z,19.54
2018-06-15T22:19:26.790Z,19.45
2018-06-15T22:22:00.117Z,19.34
2018-06-15T22:24:33.428Z,19.24
2018-06-15T22:27:06.891Z,19.14
2018-06-15T22:29:40.419Z,19.06
2018-06-15T22:32:13.941Z,18.97
2018-06-15T22:34:47.263Z,18.88
2018-06-15T22:37:20.641Z,18.80
2018-06-15T22:39:54.047Z,18.70
2018-06-15T22:42:27.341Z,18.66
2018-06-15T22:45:01.083Z,18.59
2018-06-15T22:47:34.393Z,18.58
2018-06-15T22:50:07.810Z,18.59
2018-06-15T22:52:41.229Z,18.55
2018-06-15T22:55:26.745Z,18.55
2018-06-15T22:58:00.168Z,18.54
2018-06-15T23:00:33.489Z,18.54
2018-06-15T23:03:06.926Z,18.50
2018-06-15T23:05:40.322Z,18.50
2018-06-15T23:08:13.657Z,18.37
2018-06-15T23:10:47.002Z,18.34
2018-06-15T23:13:20.409Z,18.29
2018-06-15T23:15:53.915Z,18.13
2018-06-15T23:18:32.947Z,18.07
2018-06-15T23:21:06.294Z,17.98
2018-06-15T23:23:39.911Z,17.97
2018-06-15T23:26:13.229Z,17.91
2018-06-15T23:28:46.632Z,17.87
2018-06-15T23:31:20.076Z,17.84
2018-06-15T23:33:53.521Z,17.77
2018-06-15T23:36:26.881Z,17.77
2018-06-15T23:39:00.228Z,17.76
2018-06-15T23:41:33.526Z,17.73
2018-06-15T23:44:07.056Z,17.69
2018-06-15T23:46:40.418Z,17.62
2018-06-15T23:49:13.757Z,17.49
2018-06-15T23:51:47.128Z,17.43
2018-06-15T23:54:20.477Z,17.32
2018-06-15T23:56:53.921Z,17.25
2018-06-15T23:59:27.348Z,17.15
